Aeroporto :
LOGIN :

Iscrizione | Disclaimer

   EN    FR    IT 

 










Sommario :    VFR   VFR Marginale   IFR   IFR Intensivo   IFR Molto Intensivo
Visibilità : 
Base nubi : 
>= 8 km
>= 3000ft
5 / 8 km
1000 / 3000 ft
1500m / 5 km
500 / 1000 ft
800 / 1500m
200 / 500 ft
< 800m
< 200 ft
Simboli :   Temporali  Nebbia  Neve Forte  Precipitazioni Forti  Vento > 20 kt
SIGMETs :   Varie  Temporali  Ghiacco  Turbolenza  Onda orograficha  Ceneri Vulcaniche







- Altitudine del aeroporto : 681 ft
- Codice IATA : LBA
- Carte del aeroporto


EGNM - Leeds Bradford

ULTIMO METAR :
  • 221220Z 11007KT 070V160 CAVOK 18/04 Q1007

METARs OBSOLETI :
  • 221150Z 13009KT 090V160 CAVOK 17/02 Q1007
  • 221120Z 12010KT CAVOK 17/03 Q1008
  • 221050Z 14012KT CAVOK 17/02 Q1008
  • 221020Z 12010KT CAVOK 16/00 Q1008
  • 220950Z 12009KT CAVOK 15/00 Q1008
  • 220920Z 10007KT 070V160 CAVOK 14/04 Q1009

TAF TAF EGNM
Valido dal 22 a 12 ore il 23 a 12 ore UTC


221056Z 2212/2312 12010KT CAVOK
BECMG 2221/2224 VRB03KT
PROB30
TEMPO 2303/2308 8000
BECMG 2308/2311 08010KT
ATIS : +44 113 250 9696 (x2489)
Nessun NOTAM noto per questo aeroporto.



MetMap, La meteo Aeronautica in un colpo d'occhio ! - Copyright ORBIFLY Dicembre 2007 - Disclaimer

ORBIFLY MET'MAP TEAM :

Programmazione e sviluppo : Alexandra Zaïnal
Concezione e sviluppo : Baudouin d'Aumeries
Co-Programmazione e sviluppo : Marc-Olivier Méhu
Supporto tecnico e logistico : Manuel Goepfert
Aiuto per la traduzione : Arnaldo La Scala

Contatto : metmap@orbifly.com




FONTI E CREDITI :

   NOAA